sensor_id;sensor_type;location;lat;lon;timestamp;temperature;humidity
39371;DHT22;25099;51.946;4.838;2022-10-31T00:01:33;12.20;99.90
39371;DHT22;25099;51.946;4.838;2022-10-31T00:03:59;12.20;99.90
39371;DHT22;25099;51.946;4.838;2022-10-31T00:06:25;12.20;99.90
39371;DHT22;25099;51.946;4.838;2022-10-31T00:08:59;12.20;99.90
39371;DHT22;25099;51.946;4.838;2022-10-31T00:11:26;12.20;99.90
39371;DHT22;25099;51.946;4.838;2022-10-31T00:13:52;12.20;99.90
39371;DHT22;25099;51.946;4.838;2022-10-31T00:16:22;12.10;99.90
39371;DHT22;25099;51.946;4.838;2022-10-31T00:18:50;12.10;99.90
39371;DHT22;25099;51.946;4.838;2022-10-31T00:21:16;12.10;99.90
39371;DHT22;25099;51.946;4.838;2022-10-31T00:23:42;12.10;99.90
39371;DHT22;25099;51.946;4.838;2022-10-31T00:26:08;12.10;99.90
39371;DHT22;25099;51.946;4.838;2022-10-31T00:28:34;12.10;99.90
39371;DHT22;25099;51.946;4.838;2022-10-31T00:31:01;12.10;99.90
39371;DHT22;25099;51.946;4.838;2022-10-31T00:33:27;12.10;99.90
39371;DHT22;25099;51.946;4.838;2022-10-31T00:35:53;12.10;99.90
39371;DHT22;25099;51.946;4.838;2022-10-31T00:38:19;12.00;99.90
39371;DHT22;25099;51.946;4.838;2022-10-31T00:40:44;12.00;99.90
39371;DHT22;25099;51.946;4.838;2022-10-31T00:43:10;12.00;99.90
39371;DHT22;25099;51.946;4.838;2022-10-31T00:45:35;11.90;99.90
39371;DHT22;25099;51.946;4.838;2022-10-31T00:48:01;11.90;99.90
39371;DHT22;25099;51.946;4.838;2022-10-31T00:50:30;11.90;99.90
39371;DHT22;25099;51.946;4.838;2022-10-31T00:52:56;11.80;99.90
39371;DHT22;25099;51.946;4.838;2022-10-31T00:55:23;11.80;99.90
39371;DHT22;25099;51.946;4.838;2022-10-31T00:57:49;11.80;99.90
39371;DHT22;25099;51.946;4.838;2022-10-31T01:00:16;11.80;99.90
39371;DHT22;25099;51.946;4.838;2022-10-31T01:02:41;11.80;99.90
39371;DHT22;25099;51.946;4.838;2022-10-31T01:05:07;11.80;99.90
39371;DHT22;25099;51.946;4.838;2022-10-31T01:07:36;11.80;99.90
39371;DHT22;25099;51.946;4.838;2022-10-31T01:10:03;11.70;99.90
39371;DHT22;25099;51.946;4.838;2022-10-31T01:12:28;11.70;99.90
39371;DHT22;25099;51.946;4.838;2022-10-31T01:14:54;11.70;99.90
39371;DHT22;25099;51.946;4.838;2022-10-31T01:17:19;11.70;99.90
39371;DHT22;25099;51.946;4.838;2022-10-31T01:19:45;11.70;99.90
39371;DHT22;25099;51.946;4.838;2022-10-31T01:22:11;11.60;99.90
39371;DHT22;25099;51.946;4.838;2022-10-31T01:24:36;11.50;99.90
39371;DHT22;25099;51.946;4.838;2022-10-31T01:27:02;11.50;99.90
39371;DHT22;25099;51.946;4.838;2022-10-31T01:29:29;11.40;99.90
39371;DHT22;25099;51.946;4.838;2022-10-31T01:31:56;11.40;99.90
39371;DHT22;25099;51.946;4.838;2022-10-31T01:34:21;11.40;99.90
39371;DHT22;25099;51.946;4.838;2022-10-31T01:36:47;11.40;99.90
39371;DHT22;25099;51.946;4.838;2022-10-31T01:39:17;11.40;99.90
39371;DHT22;25099;51.946;4.838;2022-10-31T01:41:44;11.30;99.90
39371;DHT22;25099;51.946;4.838;2022-10-31T01:46:45;11.30;99.90
39371;DHT22;25099;51.946;4.838;2022-10-31T01:51:54;11.30;99.90
39371;DHT22;25099;51.946;4.838;2022-10-31T01:54:24;11.20;99.90
39371;DHT22;25099;51.946;4.838;2022-10-31T01:56:54;11.30;99.90
39371;DHT22;25099;51.946;4.838;2022-10-31T01:59:22;11.20;99.90
39371;DHT22;25099;51.946;4.838;2022-10-31T02:01:50;11.20;99.90
39371;DHT22;25099;51.946;4.838;2022-10-31T02:04:17;11.20;99.90
39371;DHT22;25099;51.946;4.838;2022-10-31T02:06:52;11.20;99.90
39371;DHT22;25099;51.946;4.838;2022-10-31T02:09:20;11.10;99.90
39371;DHT22;25099;51.946;4.838;2022-10-31T02:11:51;11.20;99.90
39371;DHT22;25099;51.946;4.838;2022-10-31T02:14:21;11.10;99.90
39371;DHT22;25099;51.946;4.838;2022-10-31T02:16:47;11.10;99.90
39371;DHT22;25099;51.946;4.838;2022-10-31T02:19:34;11.10;99.90
39371;DHT22;25099;51.946;4.838;2022-10-31T02:28:13;11.00;99.90
39371;DHT22;25099;51.946;4.838;2022-10-31T02:33:52;10.90;99.90
39371;DHT22;25099;51.946;4.838;2022-10-31T02:39:18;10.90;99.90
39371;DHT22;25099;51.946;4.838;2022-10-31T02:42:09;10.90;99.90
39371;DHT22;25099;51.946;4.838;2022-10-31T02:44:50;10.90;99.90
39371;DHT22;25099;51.946;4.838;2022-10-31T02:47:26;10.90;99.90
39371;DHT22;25099;51.946;4.838;2022-10-31T02:50:14;10.80;99.90
39371;DHT22;25099;51.946;4.838;2022-10-31T02:52:41;10.80;99.90
39371;DHT22;25099;51.946;4.838;2022-10-31T02:58:06;10.70;99.90
39371;DHT22;25099;51.946;4.838;2022-10-31T03:01:31;10.70;99.90
39371;DHT22;25099;51.946;4.838;2022-10-31T03:03:36;10.70;99.90
39371;DHT22;25099;51.946;4.838;2022-10-31T03:06:20;10.70;99.90
39371;DHT22;25099;51.946;4.838;2022-10-31T03:09:04;10.70;99.90
39371;DHT22;25099;51.946;4.838;2022-10-31T03:11:51;10.60;99.90
39371;DHT22;25099;51.946;4.838;2022-10-31T03:14:26;10.60;99.90
39371;DHT22;25099;51.946;4.838;2022-10-31T03:16:56;10.60;99.90
39371;DHT22;25099;51.946;4.838;2022-10-31T03:19:30;10.60;99.90
39371;DHT22;25099;51.946;4.838;2022-10-31T03:22:31;10.60;99.90
39371;DHT22;25099;51.946;4.838;2022-10-31T03:24:57;10.60;99.90
39371;DHT22;25099;51.946;4.838;2022-10-31T03:27:28;10.60;99.90
39371;DHT22;25099;51.946;4.838;2022-10-31T03:29:57;10.60;99.90
39371;DHT22;25099;51.946;4.838;2022-10-31T03:32:46;10.60;99.90
39371;DHT22;25099;51.946;4.838;2022-10-31T03:35:13;10.60;99.90
39371;DHT22;25099;51.946;4.838;2022-10-31T03:37:41;10.50;99.90
39371;DHT22;25099;51.946;4.838;2022-10-31T03:40:09;10.50;99.90
39371;DHT22;25099;51.946;4.838;2022-10-31T03:42:40;10.50;99.90
39371;DHT22;25099;51.946;4.838;2022-10-31T03:45:09;10.50;99.90
39371;DHT22;25099;51.946;4.838;2022-10-31T03:47:37;10.50;99.90
39371;DHT22;25099;51.946;4.838;2022-10-31T03:50:05;10.40;99.90
39371;DHT22;25099;51.946;4.838;2022-10-31T03:55:41;10.40;99.90
39371;DHT22;25099;51.946;4.838;2022-10-31T03:58:12;10.50;99.90
39371;DHT22;25099;51.946;4.838;2022-10-31T04:00:44;10.50;99.90
39371;DHT22;25099;51.946;4.838;2022-10-31T04:03:14;10.50;99.90
39371;DHT22;25099;51.946;4.838;2022-10-31T04:05:43;10.40;99.90
39371;DHT22;25099;51.946;4.838;2022-10-31T04:08:14;10.50;99.90
39371;DHT22;25099;51.946;4.838;2022-10-31T04:10:43;10.50;99.90
39371;DHT22;25099;51.946;4.838;2022-10-31T04:13:13;10.40;99.90
39371;DHT22;25099;51.946;4.838;2022-10-31T04:15:41;10.40;99.90
39371;DHT22;25099;51.946;4.838;2022-10-31T04:18:07;10.40;99.90
39371;DHT22;25099;51.946;4.838;2022-10-31T04:20:36;10.40;99.90
39371;DHT22;25099;51.946;4.838;2022-10-31T04:23:03;10.40;99.90
39371;DHT22;25099;51.946;4.838;2022-10-31T04:25:29;10.40;99.90
39371;DHT22;25099;51.946;4.838;2022-10-31T04:27:54;10.40;99.90
39371;DHT22;25099;51.946;4.838;2022-10-31T04:30:20;10.30;99.90
39371;DHT22;25099;51.946;4.838;2022-10-31T04:32:46;10.40;99.90
39371;DHT22;25099;51.946;4.838;2022-10-31T04:35:11;10.40;99.90
39371;DHT22;25099;51.946;4.838;2022-10-31T04:37:37;10.30;99.90
39371;DHT22;25099;51.946;4.838;2022-10-31T04:40:04;10.40;99.90
39371;DHT22;25099;51.946;4.838;2022-10-31T04:42:30;10.30;99.90
39371;DHT22;25099;51.946;4.838;2022-10-31T04:44:55;10.30;99.90
39371;DHT22;25099;51.946;4.838;2022-10-31T04:47:21;10.30;99.90
39371;DHT22;25099;51.946;4.838;2022-10-31T04:49:47;10.30;99.90
39371;DHT22;25099;51.946;4.838;2022-10-31T04:52:12;10.30;99.90
39371;DHT22;25099;51.946;4.838;2022-10-31T04:54:39;10.30;99.90
39371;DHT22;25099;51.946;4.838;2022-10-31T04:57:05;10.30;99.90
39371;DHT22;25099;51.946;4.838;2022-10-31T04:59:30;10.30;99.90
39371;DHT22;25099;51.946;4.838;2022-10-31T05:01:56;10.30;99.90
39371;DHT22;25099;51.946;4.838;2022-10-31T05:04:21;10.30;99.90
39371;DHT22;25099;51.946;4.838;2022-10-31T05:06:47;10.30;99.90
39371;DHT22;25099;51.946;4.838;2022-10-31T05:09:13;10.30;99.90
39371;DHT22;25099;51.946;4.838;2022-10-31T05:11:38;10.30;99.90
39371;DHT22;25099;51.946;4.838;2022-10-31T05:14:04;11.00;99.90
39371;DHT22;25099;51.946;4.838;2022-10-31T05:16:29;10.30;99.90
39371;DHT22;25099;51.946;4.838;2022-10-31T05:18:55;10.30;99.90
39371;DHT22;25099;51.946;4.838;2022-10-31T05:21:20;10.20;99.90
39371;DHT22;25099;51.946;4.838;2022-10-31T05:23:46;10.30;99.90
39371;DHT22;25099;51.946;4.838;2022-10-31T05:26:15;10.30;99.90
39371;DHT22;25099;51.946;4.838;2022-10-31T05:28:40;10.30;99.90
39371;DHT22;25099;51.946;4.838;2022-10-31T05:31:06;10.20;99.90
39371;DHT22;25099;51.946;4.838;2022-10-31T05:33:31;10.30;99.90
39371;DHT22;25099;51.946;4.838;2022-10-31T05:35:57;10.20;99.90
39371;DHT22;25099;51.946;4.838;2022-10-31T05:38:25;10.20;99.90
39371;DHT22;25099;51.946;4.838;2022-10-31T05:40:54;10.20;99.90
39371;DHT22;25099;51.946;4.838;2022-10-31T05:43:23;10.20;99.90
39371;DHT22;25099;51.946;4.838;2022-10-31T05:45:52;10.20;99.90
39371;DHT22;25099;51.946;4.838;2022-10-31T05:48:18;10.20;99.90
39371;DHT22;25099;51.946;4.838;2022-10-31T05:50:44;10.10;99.90
39371;DHT22;25099;51.946;4.838;2022-10-31T05:53:09;10.10;99.90
39371;DHT22;25099;51.946;4.838;2022-10-31T05:55:35;10.10;99.90
39371;DHT22;25099;51.946;4.838;2022-10-31T05:58:02;10.10;99.90
39371;DHT22;25099;51.946;4.838;2022-10-31T06:00:28;10.10;99.90
39371;DHT22;25099;51.946;4.838;2022-10-31T06:03:01;10.10;99.90
39371;DHT22;25099;51.946;4.838;2022-10-31T06:05:28;10.10;99.90
39371;DHT22;25099;51.946;4.838;2022-10-31T06:07:53;10.10;99.90
39371;DHT22;25099;51.946;4.838;2022-10-31T06:10:19;10.10;99.90
39371;DHT22;25099;51.946;4.838;2022-10-31T06:12:46;10.20;99.90
39371;DHT22;25099;51.946;4.838;2022-10-31T06:15:12;10.10;99.90
39371;DHT22;25099;51.946;4.838;2022-10-31T06:17:37;10.10;99.90
39371;DHT22;25099;51.946;4.838;2022-10-31T06:20:07;10.20;99.90
39371;DHT22;25099;51.946;4.838;2022-10-31T06:22:33;10.10;99.90
39371;DHT22;25099;51.946;4.838;2022-10-31T06:24:59;10.10;99.90
39371;DHT22;25099;51.946;4.838;2022-10-31T06:27:25;10.10;99.90
39371;DHT22;25099;51.946;4.838;2022-10-31T06:29:51;10.10;99.90
39371;DHT22;25099;51.946;4.838;2022-10-31T06:32:19;10.10;99.90
39371;DHT22;25099;51.946;4.838;2022-10-31T06:34:45;10.10;99.90
39371;DHT22;25099;51.946;4.838;2022-10-31T06:37:14;10.10;99.90
39371;DHT22;25099;51.946;4.838;2022-10-31T06:39:40;10.10;99.90
39371;DHT22;25099;51.946;4.838;2022-10-31T06:42:06;10.10;99.90
39371;DHT22;25099;51.946;4.838;2022-10-31T06:44:32;10.10;99.90
39371;DHT22;25099;51.946;4.838;2022-10-31T06:46:58;10.10;99.90
39371;DHT22;25099;51.946;4.838;2022-10-31T06:49:26;10.10;99.90
39371;DHT22;25099;51.946;4.838;2022-10-31T06:51:52;10.10;99.90
39371;DHT22;25099;51.946;4.838;2022-10-31T06:54:17;10.10;99.90
39371;DHT22;25099;51.946;4.838;2022-10-31T06:56:46;10.10;99.90
39371;DHT22;25099;51.946;4.838;2022-10-31T06:59:12;10.10;99.90
39371;DHT22;25099;51.946;4.838;2022-10-31T07:01:38;10.10;99.90
39371;DHT22;25099;51.946;4.838;2022-10-31T07:04:03;10.20;99.90
39371;DHT22;25099;51.946;4.838;2022-10-31T07:06:29;10.10;99.90
39371;DHT22;25099;51.946;4.838;2022-10-31T07:08:56;10.20;99.90
39371;DHT22;25099;51.946;4.838;2022-10-31T07:11:21;10.40;99.90
39371;DHT22;25099;51.946;4.838;2022-10-31T07:13:47;10.20;99.90
39371;DHT22;25099;51.946;4.838;2022-10-31T07:16:12;10.20;99.90
39371;DHT22;25099;51.946;4.838;2022-10-31T07:18:39;10.30;99.90
39371;DHT22;25099;51.946;4.838;2022-10-31T07:21:05;10.30;99.90
39371;DHT22;25099;51.946;4.838;2022-10-31T07:23:31;10.30;99.90
39371;DHT22;25099;51.946;4.838;2022-10-31T07:25:57;10.40;99.90
39371;DHT22;25099;51.946;4.838;2022-10-31T07:28:23;10.40;99.90
39371;DHT22;25099;51.946;4.838;2022-10-31T07:30:51;10.50;99.90
39371;DHT22;25099;51.946;4.838;2022-10-31T07:33:16;10.40;99.90
39371;DHT22;25099;51.946;4.838;2022-10-31T07:35:42;10.50;99.90
39371;DHT22;25099;51.946;4.838;2022-10-31T07:38:09;10.50;99.90
39371;DHT22;25099;51.946;4.838;2022-10-31T07:40:35;10.50;99.90
39371;DHT22;25099;51.946;4.838;2022-10-31T07:43:01;10.50;99.90
39371;DHT22;25099;51.946;4.838;2022-10-31T07:45:27;10.50;99.90
39371;DHT22;25099;51.946;4.838;2022-10-31T07:47:53;10.50;99.90
39371;DHT22;25099;51.946;4.838;2022-10-31T07:50:20;10.50;99.90
39371;DHT22;25099;51.946;4.838;2022-10-31T07:52:48;10.60;99.90
39371;DHT22;25099;51.946;4.838;2022-10-31T07:55:23;10.60;99.90
39371;DHT22;25099;51.946;4.838;2022-10-31T07:58:00;10.60;99.90
39371;DHT22;25099;51.946;4.838;2022-10-31T08:00:27;10.70;99.90
39371;DHT22;25099;51.946;4.838;2022-10-31T08:03:10;10.70;99.90
39371;DHT22;25099;51.946;4.838;2022-10-31T08:05:36;10.70;99.90
39371;DHT22;25099;51.946;4.838;2022-10-31T08:08:05;11.10;99.90
39371;DHT22;25099;51.946;4.838;2022-10-31T08:10:32;10.70;99.90
39371;DHT22;25099;51.946;4.838;2022-10-31T08:13:00;10.80;99.90
39371;DHT22;25099;51.946;4.838;2022-10-31T08:15:26;10.80;99.90
39371;DHT22;25099;51.946;4.838;2022-10-31T08:17:52;10.80;99.90
39371;DHT22;25099;51.946;4.838;2022-10-31T08:20:19;10.90;99.90
39371;DHT22;25099;51.946;4.838;2022-10-31T08:23:04;11.00;99.90
39371;DHT22;25099;51.946;4.838;2022-10-31T08:25:31;11.00;99.90
39371;DHT22;25099;51.946;4.838;2022-10-31T08:27:58;11.00;99.90
39371;DHT22;25099;51.946;4.838;2022-10-31T08:30:27;11.10;99.90
39371;DHT22;25099;51.946;4.838;2022-10-31T08:33:05;11.10;99.90
39371;DHT22;25099;51.946;4.838;2022-10-31T08:35:32;11.20;99.90
39371;DHT22;25099;51.946;4.838;2022-10-31T08:37:58;11.20;99.90
39371;DHT22;25099;51.946;4.838;2022-10-31T08:40:28;11.20;99.90
39371;DHT22;25099;51.946;4.838;2022-10-31T08:43:04;11.30;99.90
39371;DHT22;25099;51.946;4.838;2022-10-31T08:45:31;11.40;99.90
39371;DHT22;25099;51.946;4.838;2022-10-31T08:48:03;11.40;99.90
39371;DHT22;25099;51.946;4.838;2022-10-31T08:50:29;11.50;99.90
39371;DHT22;25099;51.946;4.838;2022-10-31T08:53:06;11.60;99.90
39371;DHT22;25099;51.946;4.838;2022-10-31T08:55:35;11.70;99.90
39371;DHT22;25099;51.946;4.838;2022-10-31T08:58:06;11.80;99.90
39371;DHT22;25099;51.946;4.838;2022-10-31T09:00:33;11.80;99.90
39371;DHT22;25099;51.946;4.838;2022-10-31T09:03:01;11.90;99.90
39371;DHT22;25099;51.946;4.838;2022-10-31T09:05:27;11.90;99.90
39371;DHT22;25099;51.946;4.838;2022-10-31T09:08:00;12.00;99.90
39371;DHT22;25099;51.946;4.838;2022-10-31T09:10:29;12.00;99.90
39371;DHT22;25099;51.946;4.838;2022-10-31T09:13:06;12.10;99.90
39371;DHT22;25099;51.946;4.838;2022-10-31T09:15:34;12.10;99.90
39371;DHT22;25099;51.946;4.838;2022-10-31T09:18:00;12.20;99.90
39371;DHT22;25099;51.946;4.838;2022-10-31T09:20:27;12.20;99.90
39371;DHT22;25099;51.946;4.838;2022-10-31T09:23:06;12.30;99.90
39371;DHT22;25099;51.946;4.838;2022-10-31T09:25:33;12.40;99.90
39371;DHT22;25099;51.946;4.838;2022-10-31T09:28:01;12.40;99.90
39371;DHT22;25099;51.946;4.838;2022-10-31T09:30:28;12.50;99.90
39371;DHT22;25099;51.946;4.838;2022-10-31T09:32:59;12.60;99.90
39371;DHT22;25099;51.946;4.838;2022-10-31T09:35:25;12.70;99.90
39371;DHT22;25099;51.946;4.838;2022-10-31T09:37:55;12.80;99.90
39371;DHT22;25099;51.946;4.838;2022-10-31T09:40:23;12.90;99.90
39371;DHT22;25099;51.946;4.838;2022-10-31T09:42:58;12.90;99.90
39371;DHT22;25099;51.946;4.838;2022-10-31T09:45:44;13.00;99.90
39371;DHT22;25099;51.946;4.838;2022-10-31T09:50:56;13.20;99.90
39371;DHT22;25099;51.946;4.838;2022-10-31T09:53:28;13.30;99.90
39371;DHT22;25099;51.946;4.838;2022-10-31T09:55:55;13.40;99.90
39371;DHT22;25099;51.946;4.838;2022-10-31T09:58:28;13.40;99.90
39371;DHT22;25099;51.946;4.838;2022-10-31T10:00:58;13.50;99.90
39371;DHT22;25099;51.946;4.838;2022-10-31T10:03:35;13.60;99.90
39371;DHT22;25099;51.946;4.838;2022-10-31T10:08:43;13.70;99.90
39371;DHT22;25099;51.946;4.838;2022-10-31T10:19:33;14.10;99.90
39371;DHT22;25099;51.946;4.838;2022-10-31T10:27:48;14.40;99.90
39371;DHT22;25099;51.946;4.838;2022-10-31T10:30:19;14.50;99.90
39371;DHT22;25099;51.946;4.838;2022-10-31T10:32:52;14.50;99.90
39371;DHT22;25099;51.946;4.838;2022-10-31T10:35:34;14.60;99.90
39371;DHT22;25099;51.946;4.838;2022-10-31T10:40:51;14.70;99.90
39371;DHT22;25099;51.946;4.838;2022-10-31T10:43:31;14.70;99.90
39371;DHT22;25099;51.946;4.838;2022-10-31T10:46:17;14.80;99.90
39371;DHT22;25099;51.946;4.838;2022-10-31T10:49:24;14.80;99.90
39371;DHT22;25099;51.946;4.838;2022-10-31T11:00:31;14.80;99.90
39371;DHT22;25099;51.946;4.838;2022-10-31T11:02:57;14.80;99.90
39371;DHT22;25099;51.946;4.838;2022-10-31T11:05:44;14.80;99.90
39371;DHT22;25099;51.946;4.838;2022-10-31T11:08:30;14.80;99.90
39371;DHT22;25099;51.946;4.838;2022-10-31T11:13:42;15.00;99.90
39371;DHT22;25099;51.946;4.838;2022-10-31T11:19:23;15.10;99.90
39371;DHT22;25099;51.946;4.838;2022-10-31T11:21:51;15.20;99.90
39371;DHT22;25099;51.946;4.838;2022-10-31T11:24:21;15.30;99.90
39371;DHT22;25099;51.946;4.838;2022-10-31T11:26:48;15.30;99.90
39371;DHT22;25099;51.946;4.838;2022-10-31T11:29:24;15.30;99.90
39371;DHT22;25099;51.946;4.838;2022-10-31T11:31:55;15.30;99.90
39371;DHT22;25099;51.946;4.838;2022-10-31T11:34:49;15.40;99.90
39371;DHT22;25099;51.946;4.838;2022-10-31T11:37:23;15.40;99.90
39371;DHT22;25099;51.946;4.838;2022-10-31T11:40:02;15.30;99.90
39371;DHT22;25099;51.946;4.838;2022-10-31T11:42:40;15.30;99.90
39371;DHT22;25099;51.946;4.838;2022-10-31T11:45:15;15.30;99.90
39371;DHT22;25099;51.946;4.838;2022-10-31T11:47:49;15.30;99.90
39371;DHT22;25099;51.946;4.838;2022-10-31T11:50:23;15.30;99.90
39371;DHT22;25099;51.946;4.838;2022-10-31T11:52:51;15.40;99.90
39371;DHT22;25099;51.946;4.838;2022-10-31T11:55:32;15.40;99.90
39371;DHT22;25099;51.946;4.838;2022-10-31T11:57:58;15.40;99.90
39371;DHT22;25099;51.946;4.838;2022-10-31T12:00:36;15.40;99.90
39371;DHT22;25099;51.946;4.838;2022-10-31T12:06:16;15.50;99.90
39371;DHT22;25099;51.946;4.838;2022-10-31T12:08:43;15.50;99.90
39371;DHT22;25099;51.946;4.838;2022-10-31T12:19:05;15.50;99.90
39371;DHT22;25099;51.946;4.838;2022-10-31T12:21:42;15.60;99.90
39371;DHT22;25099;51.946;4.838;2022-10-31T12:35:55;15.90;99.90
39371;DHT22;25099;51.946;4.838;2022-10-31T12:41:34;16.00;99.90
39371;DHT22;25099;51.946;4.838;2022-10-31T12:49:39;16.10;99.90
39371;DHT22;25099;51.946;4.838;2022-10-31T12:55:25;16.10;99.90
39371;DHT22;25099;51.946;4.838;2022-10-31T12:57:59;16.20;99.90
39371;DHT22;25099;51.946;4.838;2022-10-31T13:00:27;16.20;99.90
39371;DHT22;25099;51.946;4.838;2022-10-31T13:03:18;16.20;99.90
39371;DHT22;25099;51.946;4.838;2022-10-31T13:05:49;16.20;99.90
39371;DHT22;25099;51.946;4.838;2022-10-31T13:08:50;16.20;99.90
39371;DHT22;25099;51.946;4.838;2022-10-31T13:11:18;16.20;99.90
39371;DHT22;25099;51.946;4.838;2022-10-31T13:13:56;16.20;99.90
39371;DHT22;25099;51.946;4.838;2022-10-31T13:16:26;16.20;99.90
39371;DHT22;25099;51.946;4.838;2022-10-31T13:19:29;16.10;99.90
39371;DHT22;25099;51.946;4.838;2022-10-31T13:22:07;16.10;99.90
39371;DHT22;25099;51.946;4.838;2022-10-31T13:27:03;16.00;99.90
39371;DHT22;25099;51.946;4.838;2022-10-31T13:29:44;15.90;99.90
39371;DHT22;25099;51.946;4.838;2022-10-31T13:32:12;15.90;99.90
39371;DHT22;25099;51.946;4.838;2022-10-31T13:34:50;15.90;99.90
39371;DHT22;25099;51.946;4.838;2022-10-31T13:37:39;15.80;99.90
39371;DHT22;25099;51.946;4.838;2022-10-31T13:40:11;15.90;99.90
39371;DHT22;25099;51.946;4.838;2022-10-31T13:45:28;15.80;99.90
39371;DHT22;25099;51.946;4.838;2022-10-31T13:50:42;15.90;99.90
39371;DHT22;25099;51.946;4.838;2022-10-31T13:55:41;15.90;99.90
39371;DHT22;25099;51.946;4.838;2022-10-31T13:58:30;15.90;99.90
39371;DHT22;25099;51.946;4.838;2022-10-31T14:01:13;15.80;99.90
39371;DHT22;25099;51.946;4.838;2022-10-31T14:03:42;15.80;99.90
39371;DHT22;25099;51.946;4.838;2022-10-31T14:06:10;15.80;99.90
39371;DHT22;25099;51.946;4.838;2022-10-31T14:08:39;15.80;99.90
39371;DHT22;25099;51.946;4.838;2022-10-31T14:11:07;15.80;99.90
39371;DHT22;25099;51.946;4.838;2022-10-31T14:13:37;15.80;99.90
39371;DHT22;25099;51.946;4.838;2022-10-31T14:16:20;15.80;99.90
39371;DHT22;25099;51.946;4.838;2022-10-31T14:18:51;15.80;99.90
39371;DHT22;25099;51.946;4.838;2022-10-31T14:23:52;15.80;99.90
39371;DHT22;25099;51.946;4.838;2022-10-31T14:28:57;15.80;99.90
39371;DHT22;25099;51.946;4.838;2022-10-31T14:31:31;15.80;99.90
39371;DHT22;25099;51.946;4.838;2022-10-31T14:33:59;15.80;99.90
39371;DHT22;25099;51.946;4.838;2022-10-31T14:36:37;15.80;99.90
39371;DHT22;25099;51.946;4.838;2022-10-31T14:41:52;15.70;99.90
39371;DHT22;25099;51.946;4.838;2022-10-31T14:50:31;15.60;99.90
39371;DHT22;25099;51.946;4.838;2022-10-31T14:53:01;15.60;99.90
39371;DHT22;25099;51.946;4.838;2022-10-31T14:55:29;15.60;99.90
39371;DHT22;25099;51.946;4.838;2022-10-31T14:57:59;15.50;99.90
39371;DHT22;25099;51.946;4.838;2022-10-31T15:00:26;15.50;99.90
39371;DHT22;25099;51.946;4.838;2022-10-31T15:03:07;15.50;99.90
39371;DHT22;25099;51.946;4.838;2022-10-31T15:05:42;15.50;99.90
39371;DHT22;25099;51.946;4.838;2022-10-31T15:08:25;15.50;99.90
39371;DHT22;25099;51.946;4.838;2022-10-31T15:10:52;15.50;99.90
39371;DHT22;25099;51.946;4.838;2022-10-31T15:13:19;15.50;99.90
39371;DHT22;25099;51.946;4.838;2022-10-31T15:15:47;15.50;99.90
39371;DHT22;25099;51.946;4.838;2022-10-31T15:18:17;15.40;99.90
39371;DHT22;25099;51.946;4.838;2022-10-31T15:20:45;15.40;99.90
39371;DHT22;25099;51.946;4.838;2022-10-31T15:23:23;15.30;99.90
39371;DHT22;25099;51.946;4.838;2022-10-31T15:25:50;15.40;99.90
39371;DHT22;25099;51.946;4.838;2022-10-31T15:28:22;15.40;99.90
39371;DHT22;25099;51.946;4.838;2022-10-31T15:30:54;15.40;99.90
39371;DHT22;25099;51.946;4.838;2022-10-31T15:33:29;15.40;99.90
39371;DHT22;25099;51.946;4.838;2022-10-31T15:35:57;15.30;99.90
39371;DHT22;25099;51.946;4.838;2022-10-31T15:38:23;15.30;99.90
39371;DHT22;25099;51.946;4.838;2022-10-31T15:41:02;15.30;99.90
39371;DHT22;25099;51.946;4.838;2022-10-31T15:43:34;15.30;99.90
39371;DHT22;25099;51.946;4.838;2022-10-31T15:46:01;15.30;99.90
39371;DHT22;25099;51.946;4.838;2022-10-31T15:48:27;15.30;99.90
39371;DHT22;25099;51.946;4.838;2022-10-31T15:50:57;15.30;99.90
39371;DHT22;25099;51.946;4.838;2022-10-31T15:53:35;15.20;99.90
39371;DHT22;25099;51.946;4.838;2022-10-31T15:56:05;15.20;99.90
39371;DHT22;25099;51.946;4.838;2022-10-31T15:58:33;15.30;99.90
39371;DHT22;25099;51.946;4.838;2022-10-31T16:01:04;15.20;99.90
39371;DHT22;25099;51.946;4.838;2022-10-31T16:03:32;15.20;99.90
39371;DHT22;25099;51.946;4.838;2022-10-31T16:06:03;15.20;99.90
39371;DHT22;25099;51.946;4.838;2022-10-31T16:13:42;15.10;99.90
39371;DHT22;25099;51.946;4.838;2022-10-31T16:16:17;15.00;99.90
39371;DHT22;25099;51.946;4.838;2022-10-31T16:18:45;14.90;99.90
39371;DHT22;25099;51.946;4.838;2022-10-31T16:21:11;14.80;99.90
39371;DHT22;25099;51.946;4.838;2022-10-31T16:23:43;14.80;99.90
39371;DHT22;25099;51.946;4.838;2022-10-31T16:26:10;14.80;99.90
39371;DHT22;25099;51.946;4.838;2022-10-31T16:28:54;14.80;99.90
39371;DHT22;25099;51.946;4.838;2022-10-31T16:31:28;14.80;99.90
39371;DHT22;25099;51.946;4.838;2022-10-31T16:34:10;14.80;99.90
39371;DHT22;25099;51.946;4.838;2022-10-31T16:36:36;14.80;99.90
39371;DHT22;25099;51.946;4.838;2022-10-31T16:39:04;14.80;99.90
39371;DHT22;25099;51.946;4.838;2022-10-31T16:41:30;14.80;99.90
39371;DHT22;25099;51.946;4.838;2022-10-31T16:43:57;14.70;99.90
39371;DHT22;25099;51.946;4.838;2022-10-31T16:46:25;14.80;99.90
39371;DHT22;25099;51.946;4.838;2022-10-31T16:48:51;14.80;99.90
39371;DHT22;25099;51.946;4.838;2022-10-31T16:51:18;14.80;99.90
39371;DHT22;25099;51.946;4.838;2022-10-31T16:53:43;14.70;99.90
39371;DHT22;25099;51.946;4.838;2022-10-31T16:56:32;14.70;99.90
39371;DHT22;25099;51.946;4.838;2022-10-31T16:59:00;14.60;99.90
39371;DHT22;25099;51.946;4.838;2022-10-31T17:01:26;14.70;99.90
39371;DHT22;25099;51.946;4.838;2022-10-31T17:03:52;14.60;99.90
39371;DHT22;25099;51.946;4.838;2022-10-31T17:06:18;14.50;99.90
39371;DHT22;25099;51.946;4.838;2022-10-31T17:08:43;14.50;99.90
39371;DHT22;25099;51.946;4.838;2022-10-31T17:11:19;14.40;99.90
39371;DHT22;25099;51.946;4.838;2022-10-31T17:13:46;14.40;99.90
39371;DHT22;25099;51.946;4.838;2022-10-31T17:16:13;14.30;99.90
39371;DHT22;25099;51.946;4.838;2022-10-31T17:18:41;14.30;99.90
39371;DHT22;25099;51.946;4.838;2022-10-31T17:21:17;14.30;99.90
39371;DHT22;25099;51.946;4.838;2022-10-31T17:23:43;14.30;99.90
39371;DHT22;25099;51.946;4.838;2022-10-31T17:26:09;14.30;99.90
39371;DHT22;25099;51.946;4.838;2022-10-31T17:28:35;14.20;99.90
39371;DHT22;25099;51.946;4.838;2022-10-31T17:31:01;14.20;99.90
39371;DHT22;25099;51.946;4.838;2022-10-31T17:33:26;14.30;99.90
39371;DHT22;25099;51.946;4.838;2022-10-31T17:35:52;14.20;99.90
39371;DHT22;25099;51.946;4.838;2022-10-31T17:38:20;14.20;99.90
39371;DHT22;25099;51.946;4.838;2022-10-31T17:40:47;14.20;99.90
39371;DHT22;25099;51.946;4.838;2022-10-31T17:43:13;14.20;99.90
39371;DHT22;25099;51.946;4.838;2022-10-31T17:45:41;14.20;99.90
39371;DHT22;25099;51.946;4.838;2022-10-31T17:48:08;14.10;99.90
39371;DHT22;25099;51.946;4.838;2022-10-31T17:50:35;14.10;99.90
39371;DHT22;25099;51.946;4.838;2022-10-31T17:53:00;14.00;99.90